createdAt,value
2023-05-08T00:02:04.949Z,101504.84
2023-05-08T00:04:33.362Z,101502.05
2023-05-08T00:07:01.811Z,101508.08
2023-05-08T00:09:30.291Z,101516.02
2023-05-08T00:11:58.780Z,101521.36
2023-05-08T00:14:27.253Z,101525.83
2023-05-08T00:16:55.694Z,101522.17
2023-05-08T00:19:24.621Z,101519.64
2023-05-08T00:21:53.215Z,101520.79
2023-05-08T00:24:21.618Z,101522.76
2023-05-08T00:26:50.481Z,101520.85
2023-05-08T00:29:18.763Z,101518.36
2023-05-08T00:31:47.297Z,101516.35
2023-05-08T00:34:15.930Z,101517.61
2023-05-08T00:36:44.413Z,101521.97
2023-05-08T00:39:12.899Z,101522.79
2023-05-08T00:41:41.380Z,101529.46
2023-05-08T00:44:09.859Z,101532.77
2023-05-08T00:46:38.526Z,101532.66
2023-05-08T00:49:07.429Z,101531.27
2023-05-08T00:51:35.814Z,101529.38
2023-05-08T00:54:04.523Z,101526.73
2023-05-08T00:56:33.087Z,101524.96
2023-05-08T00:59:01.974Z,101524.83
2023-05-08T01:01:30.780Z,101528.32
2023-05-08T01:03:59.096Z,101530.60
2023-05-08T01:06:27.730Z,101533.83
2023-05-08T01:08:56.010Z,101532.61
2023-05-08T01:11:34.728Z,101530.10
2023-05-08T01:14:28.298Z,101531.79
2023-05-08T01:17:07.144Z,101532.89
2023-05-08T01:20:09.393Z,101533.02
2023-05-08T01:22:43.509Z,101533.67
2023-05-08T01:25:40.771Z,101535.27
2023-05-08T01:28:35.362Z,101533.94
2023-05-08T01:31:08.864Z,101529.07
2023-05-08T01:33:45.085Z,101535.41
2023-05-08T01:36:31.761Z,101540.84
2023-05-08T01:39:18.241Z,101544.58
2023-05-08T01:41:51.679Z,101546.59
2023-05-08T01:44:25.448Z,101550.84
2023-05-08T01:46:54.545Z,101555.30
2023-05-08T01:49:30.805Z,101555.63
2023-05-08T01:52:15.434Z,101558.92
2023-05-08T01:54:49.492Z,101556.02
2023-05-08T01:57:18.982Z,101556.21
2023-05-08T01:59:48.177Z,101555.81
2023-05-08T02:02:17.317Z,101554.31
2023-05-08T02:04:46.164Z,101553.48
2023-05-08T02:07:15.064Z,101555.81
2023-05-08T02:09:44.770Z,101562.32
2023-05-08T02:12:13.762Z,101563.27
2023-05-08T02:14:42.959Z,101566.20
2023-05-08T02:17:13.079Z,101569.13
2023-05-08T02:19:42.482Z,101571.13
2023-05-08T02:22:11.270Z,101575.35
2023-05-08T02:24:41.081Z,101576.23
2023-05-08T02:27:10.282Z,101575.43
2023-05-08T02:29:39.182Z,101573.41
2023-05-08T02:32:09.215Z,101579.17
2023-05-08T02:34:45.096Z,101586.14
2023-05-08T02:37:21.107Z,101590.03
2023-05-08T02:39:49.998Z,101587.95
2023-05-08T02:42:18.381Z,101583.77
2023-05-08T02:44:46.756Z,101580.86
2023-05-08T02:47:26.092Z,101582.02
2023-05-08T02:50:04.606Z,101584.04
2023-05-08T02:52:40.763Z,101582.02
2023-05-08T02:55:32.616Z,101578.68
2023-05-08T02:58:19.920Z,101578.34
2023-05-08T03:00:56.912Z,101582.49
2023-05-08T03:03:37.983Z,101583.63
2023-05-08T03:06:14.014Z,101584.96
2023-05-08T03:08:43.131Z,101579.73
2023-05-08T03:11:17.349Z,101577.45
2023-05-08T03:13:47.525Z,101579.61
2023-05-08T03:16:19.511Z,101580.02
2023-05-08T03:18:53.852Z,101578.34
2023-05-08T03:21:23.463Z,101571.14
2023-05-08T03:23:53.371Z,101565.20
2023-05-08T03:26:22.593Z,101568.30
2023-05-08T03:28:52.184Z,101567.70
2023-05-08T03:31:22.614Z,101565.98
2023-05-08T03:33:55.394Z,101568.29
2023-05-08T03:36:27.160Z,101569.95
2023-05-08T03:38:55.742Z,101570.52
2023-05-08T03:41:26.058Z,101572.60
2023-05-08T03:43:55.572Z,101571.31
2023-05-08T03:46:24.815Z,101573.30
2023-05-08T03:48:53.755Z,101572.16
2023-05-08T03:51:22.451Z,101571.77
2023-05-08T03:53:50.850Z,101575.71
2023-05-08T03:56:19.511Z,101583.99
2023-05-08T03:59:15.649Z,101593.74
2023-05-08T04:01:59.841Z,101602.31
2023-05-08T04:04:34.197Z,101603.28
2023-05-08T04:07:14.556Z,101607.35
2023-05-08T04:10:05.081Z,101609.07
2023-05-08T04:12:52.244Z,101612.64
2023-05-08T04:15:26.825Z,101611.77
2023-05-08T04:18:10.550Z,101604.63
2023-05-08T04:20:43.240Z,101603.25
2023-05-08T04:23:15.519Z,101601.68
2023-05-08T04:25:45.135Z,101606.07
2023-05-08T04:28:13.810Z,101617.84
2023-05-08T04:30:42.390Z,101627.55
2023-05-08T04:33:11.645Z,101629.65
2023-05-08T04:35:40.184Z,101626.21
2023-05-08T04:38:08.760Z,101627.78
2023-05-08T04:40:37.245Z,101625.70
2023-05-08T04:43:05.725Z,101629.69
2023-05-08T04:45:34.212Z,101631.84
2023-05-08T04:48:02.896Z,101631.54
2023-05-08T04:50:31.392Z,101629.18
2023-05-08T04:52:59.863Z,101633.77
2023-05-08T04:55:28.341Z,101638.41
2023-05-08T04:57:56.616Z,101638.52
2023-05-08T05:00:25.101Z,101636.13
2023-05-08T05:02:53.590Z,101635.42
2023-05-08T05:05:22.084Z,101637.59
2023-05-08T05:07:50.542Z,101641.25
2023-05-08T05:10:19.019Z,101642.17
2023-05-08T05:12:47.517Z,101643.52
2023-05-08T05:15:16.089Z,101643.67
2023-05-08T05:17:44.444Z,101644.40
2023-05-08T05:20:13.709Z,101642.39
2023-05-08T05:22:42.043Z,101639.95
2023-05-08T05:25:11.474Z,101642.91
2023-05-08T05:27:39.934Z,101643.28
2023-05-08T05:30:08.929Z,101643.23
2023-05-08T05:32:37.345Z,101640.48
2023-05-08T05:35:06.801Z,101634.89
2023-05-08T05:37:35.185Z,101632.20
2023-05-08T05:40:04.035Z,101630.74
2023-05-08T05:42:32.249Z,101630.94
2023-05-08T05:45:02.266Z,101631.12
2023-05-08T05:47:30.600Z,101634.59
2023-05-08T05:49:59.237Z,101637.20
2023-05-08T05:52:27.723Z,101639.11
2023-05-08T05:54:56.515Z,101643.48
2023-05-08T05:57:24.984Z,101643.95
2023-05-08T05:59:54.830Z,101641.98
2023-05-08T06:02:23.450Z,101640.54
2023-05-08T06:04:52.688Z,101633.48
2023-05-08T06:07:21.581Z,101630.73
2023-05-08T06:09:51.514Z,101636.25
2023-05-08T06:12:20.806Z,101637.20
2023-05-08T06:14:49.166Z,101642.30
2023-05-08T06:17:17.948Z,101642.02
2023-05-08T06:19:54.528Z,101642.87
2023-05-08T06:22:26.921Z,101645.59
2023-05-08T06:24:55.279Z,101643.60
2023-05-08T06:27:23.663Z,101645.14
2023-05-08T06:29:53.556Z,101648.22
2023-05-08T06:32:22.509Z,101654.67
2023-05-08T06:34:50.950Z,101654.76
2023-05-08T06:37:19.545Z,101657.98
2023-05-08T06:39:50.568Z,101661.98
2023-05-08T06:42:23.284Z,101666.63
2023-05-08T06:44:54.100Z,101666.48
2023-05-08T06:47:22.424Z,101665.80
2023-05-08T06:49:51.054Z,101671.00
2023-05-08T06:52:19.748Z,101670.11
2023-05-08T06:54:48.231Z,101672.46
2023-05-08T06:57:17.227Z,101675.83
2023-05-08T06:59:45.601Z,101674.83
2023-05-08T07:02:16.447Z,101676.38
2023-05-08T07:04:45.268Z,101681.31
2023-05-08T07:07:14.531Z,101683.23
2023-05-08T07:09:42.904Z,101685.02
2023-05-08T07:12:11.697Z,101689.17
2023-05-08T07:14:40.180Z,101692.05
2023-05-08T07:17:08.685Z,101692.17
2023-05-08T07:19:37.256Z,101689.61
2023-05-08T07:22:06.623Z,101686.95
2023-05-08T07:24:35.134Z,101682.02
2023-05-08T07:27:03.536Z,101683.89
2023-05-08T07:29:31.989Z,101686.26
2023-05-08T07:32:00.554Z,101690.41
2023-05-08T07:34:29.186Z,101690.45
2023-05-08T07:36:57.640Z,101688.45
2023-05-08T07:39:26.196Z,101691.45
2023-05-08T07:41:54.707Z,101689.75
2023-05-08T07:44:23.196Z,101682.98
2023-05-08T07:46:51.732Z,101684.16
2023-05-08T07:49:20.269Z,101681.30
2023-05-08T07:51:49.550Z,101684.34
2023-05-08T07:54:18.031Z,101689.12
2023-05-08T07:56:46.522Z,101691.73
2023-05-08T07:59:14.996Z,101690.54
2023-05-08T08:01:47.895Z,101689.16
2023-05-08T08:04:17.536Z,101685.05
2023-05-08T08:06:46.499Z,101680.59
2023-05-08T08:09:14.996Z,101680.05
2023-05-08T08:11:43.547Z,101681.11
2023-05-08T08:14:12.032Z,101686.37
2023-05-08T08:16:40.457Z,101691.14
2023-05-08T08:19:09.298Z,101683.63
2023-05-08T08:21:46.490Z,101683.80
2023-05-08T08:24:14.994Z,101687.89
2023-05-08T08:26:43.465Z,101695.88
2023-05-08T08:29:11.834Z,101701.27
2023-05-08T08:31:40.325Z,101702.28
2023-05-08T08:34:08.919Z,101702.36
2023-05-08T08:36:37.511Z,101706.27
2023-05-08T08:39:06.182Z,101709.61
2023-05-08T08:41:34.754Z,101706.10
2023-05-08T08:44:03.233Z,101707.94
2023-05-08T08:46:34.773Z,101708.39
2023-05-08T08:49:05.519Z,101706.60
2023-05-08T08:51:44.518Z,101706.58
2023-05-08T08:54:14.786Z,101706.81
2023-05-08T08:56:45.301Z,101705.03
2023-05-08T08:59:13.887Z,101704.56
2023-05-08T09:01:45.472Z,101712.13
2023-05-08T09:04:14.115Z,101711.77
2023-05-08T09:06:42.712Z,101711.83
2023-05-08T09:09:13.034Z,101713.27
2023-05-08T09:11:41.826Z,101713.34
2023-05-08T09:14:10.201Z,101714.30
2023-05-08T09:16:38.647Z,101718.89
2023-05-08T09:19:07.168Z,101722.02
2023-05-08T09:21:35.854Z,101723.91
2023-05-08T09:24:05.343Z,101724.54
2023-05-08T09:26:40.374Z,101725.62
2023-05-08T09:29:09.927Z,101728.70
2023-05-08T09:31:40.139Z,101729.64
2023-05-08T09:34:33.486Z,101726.82
2023-05-08T09:37:05.047Z,101727.84
2023-05-08T09:39:33.733Z,101727.58
2023-05-08T09:42:04.768Z,101728.24
2023-05-08T09:44:52.044Z,101726.91
2023-05-08T09:47:22.600Z,101728.83
2023-05-08T09:50:01.464Z,101728.58
2023-05-08T09:52:31.078Z,101726.68
2023-05-08T09:55:02.088Z,101721.36
2023-05-08T09:57:32.154Z,101719.11
2023-05-08T10:00:18.926Z,101717.59
2023-05-08T10:02:59.851Z,101720.59
2023-05-08T10:05:34.672Z,101726.46
2023-05-08T10:08:19.815Z,101728.30
2023-05-08T10:10:48.413Z,101731.49
2023-05-08T10:13:16.912Z,101734.92
2023-05-08T10:15:46.278Z,101742.48
2023-05-08T10:18:16.196Z,101747.91
2023-05-08T10:20:47.480Z,101750.98
2023-05-08T10:23:17.806Z,101750.44
2023-05-08T10:25:47.151Z,101752.42
2023-05-08T10:28:34.190Z,101751.13
2023-05-08T10:31:04.252Z,101748.84
2023-05-08T10:33:34.936Z,101747.79
2023-05-08T10:36:03.518Z,101745.69
2023-05-08T10:38:33.650Z,101748.95
2023-05-08T10:41:02.939Z,101746.97
2023-05-08T10:43:34.289Z,101748.41
2023-05-08T10:46:08.743Z,101749.95
2023-05-08T10:48:57.266Z,101756.08
2023-05-08T10:51:46.945Z,101749.04
2023-05-08T10:54:33.550Z,101756.52
2023-05-08T10:57:12.188Z,101756.63
2023-05-08T10:59:46.909Z,101759.98
2023-05-08T11:02:16.979Z,101762.14
2023-05-08T11:04:45.945Z,101766.75
2023-05-08T11:07:14.498Z,101769.71
2023-05-08T11:09:43.329Z,101769.33
2023-05-08T11:12:26.200Z,101772.30
2023-05-08T11:15:05.392Z,101777.89
2023-05-08T11:17:34.408Z,101782.52
2023-05-08T11:20:05.546Z,101782.58
2023-05-08T11:22:35.079Z,101783.38
2023-05-08T11:25:08.040Z,101779.19
2023-05-08T11:27:42.716Z,101775.85
2023-05-08T11:30:32.576Z,101778.85
2023-05-08T11:33:04.337Z,101778.14
2023-05-08T11:35:49.807Z,101775.58
2023-05-08T11:38:31.772Z,101771.38
2023-05-08T11:41:05.700Z,101771.20
2023-05-08T11:43:34.009Z,101771.00
2023-05-08T11:46:04.514Z,101768.55
2023-05-08T11:48:33.880Z,101767.95
2023-05-08T11:51:03.478Z,101767.15
2023-05-08T11:53:32.825Z,101766.18
2023-05-08T11:56:01.337Z,101766.45
2023-05-08T11:58:30.209Z,101767.01
2023-05-08T12:00:58.634Z,101765.81
2023-05-08T12:03:27.353Z,101767.19
2023-05-08T12:05:58.257Z,101769.58
2023-05-08T12:08:27.139Z,101768.71
2023-05-08T12:10:57.335Z,101762.39
2023-05-08T12:13:30.133Z,101755.35
2023-05-08T12:16:01.509Z,101749.38
2023-05-08T12:18:31.080Z,101748.18
2023-05-08T12:21:01.355Z,101748.69
2023-05-08T12:23:30.490Z,101753.08
2023-05-08T12:26:02.566Z,101751.99
2023-05-08T12:28:34.638Z,101753.85
2023-05-08T12:31:03.030Z,101752.29
2023-05-08T12:33:32.100Z,101752.70
2023-05-08T12:36:01.293Z,101757.45
2023-05-08T12:38:30.604Z,101760.08
2023-05-08T12:41:01.062Z,101759.85
2023-05-08T12:43:36.384Z,101761.23
2023-05-08T12:46:05.839Z,101756.16
2023-05-08T12:48:34.187Z,101753.95
2023-05-08T12:51:07.592Z,101755.70
2023-05-08T12:53:36.237Z,101749.95
2023-05-08T12:56:05.276Z,101748.05
2023-05-08T12:58:34.948Z,101742.22
2023-05-08T13:01:10.237Z,101743.41
2023-05-08T13:03:39.543Z,101747.14
2023-05-08T13:06:08.488Z,101748.30
2023-05-08T13:08:38.397Z,101749.83
2023-05-08T13:11:07.386Z,101748.08
2023-05-08T13:13:36.782Z,101747.77
2023-05-08T13:16:06.948Z,101747.38
2023-05-08T13:18:38.054Z,101747.13
2023-05-08T13:21:06.548Z,101743.05
2023-05-08T13:23:35.134Z,101743.17
2023-05-08T13:26:04.633Z,101741.41
2023-05-08T13:28:33.123Z,101741.83
2023-05-08T13:31:01.507Z,101743.46
2023-05-08T13:33:30.080Z,101747.64
2023-05-08T13:35:58.664Z,101748.74
2023-05-08T13:38:27.242Z,101747.49
2023-05-08T13:40:55.513Z,101752.81
2023-05-08T13:43:24.197Z,101752.30
2023-05-08T13:45:52.733Z,101754.06
2023-05-08T13:48:21.169Z,101753.69
2023-05-08T13:50:49.590Z,101750.67
2023-05-08T13:53:18.126Z,101748.48
2023-05-08T13:55:46.836Z,101750.45
2023-05-08T13:58:15.204Z,101748.61
2023-05-08T14:00:43.679Z,101745.88
2023-05-08T14:03:12.318Z,101739.48
2023-05-08T14:05:40.841Z,101741.09
2023-05-08T14:08:11.390Z,101736.48
2023-05-08T14:10:41.186Z,101734.21
2023-05-08T14:13:09.615Z,101733.55
2023-05-08T14:15:38.309Z,101731.66
2023-05-08T14:18:06.810Z,101731.55
2023-05-08T14:20:35.836Z,101733.31
2023-05-08T14:23:04.309Z,101733.86
2023-05-08T14:25:32.801Z,101733.50
2023-05-08T14:28:01.280Z,101732.67
2023-05-08T14:30:29.769Z,101730.11
2023-05-08T14:32:58.401Z,101734.16
2023-05-08T14:35:27.137Z,101733.45
2023-05-08T14:37:55.810Z,101734.27
2023-05-08T14:40:24.683Z,101738.70
2023-05-08T14:42:53.506Z,101737.11
2023-05-08T14:45:22.362Z,101737.75
2023-05-08T14:47:50.848Z,101739.82
2023-05-08T14:50:19.453Z,101740.77
2023-05-08T14:52:47.739Z,101746.07
2023-05-08T14:55:21.368Z,101748.14
2023-05-08T14:57:50.736Z,101747.18
2023-05-08T15:00:19.528Z,101749.05
2023-05-08T15:02:48.570Z,101748.27
2023-05-08T15:05:19.886Z,101753.79
2023-05-08T15:07:50.509Z,101752.58
2023-05-08T15:10:19.147Z,101754.20
2023-05-08T15:12:47.602Z,101754.52
2023-05-08T15:15:16.766Z,101754.35
2023-05-08T15:17:45.461Z,101750.93
2023-05-08T15:20:13.934Z,101751.79
2023-05-08T15:22:42.521Z,101753.46
2023-05-08T15:25:12.442Z,101756.56
2023-05-08T15:27:42.034Z,101755.40
2023-05-08T15:30:11.140Z,101758.36
2023-05-08T15:32:40.701Z,101760.70
2023-05-08T15:35:09.838Z,101762.42
2023-05-08T15:37:38.644Z,101764.07
2023-05-08T15:40:07.979Z,101759.02
2023-05-08T15:42:36.523Z,101757.54
2023-05-08T15:45:05.472Z,101760.84
2023-05-08T15:47:37.526Z,101763.77
2023-05-08T15:50:06.892Z,101767.81
2023-05-08T15:52:35.358Z,101764.38
2023-05-08T15:55:04.660Z,101764.86
2023-05-08T15:57:32.944Z,101764.69
2023-05-08T16:00:01.560Z,101768.29
2023-05-08T16:02:30.932Z,101767.73
2023-05-08T16:04:59.616Z,101769.77
2023-05-08T16:07:31.070Z,101771.81
2023-05-08T16:09:59.747Z,101774.75
2023-05-08T16:12:28.277Z,101784.12
2023-05-08T16:14:57.228Z,101783.85
2023-05-08T16:17:29.427Z,101781.38
2023-05-08T16:19:58.510Z,101776.73
2023-05-08T16:22:27.177Z,101777.91
2023-05-08T16:24:55.757Z,101782.65
2023-05-08T16:27:26.387Z,101786.05
2023-05-08T16:29:55.589Z,101786.71
2023-05-08T16:32:40.590Z,101790.79
2023-05-08T16:35:10.339Z,101794.76
2023-05-08T16:37:38.751Z,101801.42
2023-05-08T16:40:09.348Z,101808.47
2023-05-08T16:42:41.560Z,101808.71
2023-05-08T16:45:13.614Z,101813.55
2023-05-08T16:47:42.157Z,101815.39
2023-05-08T16:50:11.510Z,101814.54
2023-05-08T16:52:39.834Z,101816.61
2023-05-08T16:55:09.435Z,101821.70
2023-05-08T16:57:39.199Z,101819.48
2023-05-08T17:00:08.455Z,101826.89
2023-05-08T17:02:39.418Z,101826.89
2023-05-08T17:05:08.637Z,101825.72
2023-05-08T17:07:37.015Z,101826.92
2023-05-08T17:10:06.005Z,101833.73
2023-05-08T17:12:34.189Z,101835.77
2023-05-08T17:15:02.663Z,101838.86
2023-05-08T17:17:31.053Z,101842.64
2023-05-08T17:19:59.476Z,101843.44
2023-05-08T17:22:27.904Z,101847.57
2023-05-08T17:24:56.297Z,101850.51
2023-05-08T17:27:24.768Z,101857.52
2023-05-08T17:29:55.295Z,101854.70
2023-05-08T17:32:23.495Z,101865.54
2023-05-08T17:34:51.971Z,101870.37
2023-05-08T17:37:20.738Z,101880.67
2023-05-08T17:39:49.125Z,101883.56
2023-05-08T17:42:17.609Z,101889.83
2023-05-08T17:44:52.143Z,101899.52
2023-05-08T17:47:20.611Z,101904.89
2023-05-08T17:49:49.101Z,101911.33
2023-05-08T17:52:17.690Z,101914.55
2023-05-08T17:54:51.900Z,101915.05
2023-05-08T17:57:22.828Z,101914.60
2023-05-08T17:59:51.367Z,101918.73
2023-05-08T18:02:20.233Z,101918.70
2023-05-08T18:04:48.711Z,101920.27
2023-05-08T18:07:17.072Z,101917.33
2023-05-08T18:09:45.659Z,101916.40
2023-05-08T18:12:14.471Z,101924.45
2023-05-08T18:14:44.769Z,101922.80
2023-05-08T18:17:15.811Z,101922.23
2023-05-08T18:19:44.804Z,101919.86
2023-05-08T18:22:13.307Z,101925.58
2023-05-08T18:24:42.011Z,101923.60
2023-05-08T18:27:10.564Z,101926.02
2023-05-08T18:29:39.453Z,101927.88
2023-05-08T18:32:11.724Z,101932.83
2023-05-08T18:34:41.278Z,101937.19
2023-05-08T18:37:09.610Z,101938.77
2023-05-08T18:39:37.987Z,101941.60
2023-05-08T18:42:06.666Z,101944.08
2023-05-08T18:44:35.048Z,101952.63
2023-05-08T18:47:05.579Z,101950.69
2023-05-08T18:49:34.181Z,101951.02
2023-05-08T18:52:02.746Z,101958.31
2023-05-08T18:54:31.844Z,101956.87
2023-05-08T18:57:00.151Z,101958.79
2023-05-08T18:59:28.806Z,101957.17
2023-05-08T19:01:57.194Z,101959.86
2023-05-08T19:04:25.822Z,101966.48
2023-05-08T19:06:54.676Z,101968.73
2023-05-08T19:09:26.332Z,101967.44
2023-05-08T19:11:54.905Z,101975.81
2023-05-08T19:14:23.792Z,101973.64
2023-05-08T19:16:52.337Z,101976.50
2023-05-08T19:19:20.856Z,101981.66
2023-05-08T19:21:49.351Z,101974.52
2023-05-08T19:24:21.088Z,101971.16
2023-05-08T19:26:49.680Z,101966.62
2023-05-08T19:29:18.060Z,101968.02
2023-05-08T19:31:46.922Z,101966.24
2023-05-08T19:34:15.349Z,101965.30
2023-05-08T19:36:43.814Z,101962.69
2023-05-08T19:39:12.290Z,101959.55
2023-05-08T19:41:43.867Z,101953.29
2023-05-08T19:44:12.230Z,101951.17
2023-05-08T19:46:40.728Z,101952.70
2023-05-08T19:49:09.223Z,101954.52
2023-05-08T19:51:40.540Z,101951.72
2023-05-08T19:54:11.596Z,101948.88
2023-05-08T19:56:40.059Z,101946.27
2023-05-08T19:59:08.443Z,101946.46
2023-05-08T20:01:40.012Z,101947.11
2023-05-08T20:04:11.085Z,101948.47
2023-05-08T20:06:43.140Z,101946.88
2023-05-08T20:09:13.937Z,101947.59
2023-05-08T20:11:45.182Z,101943.17
2023-05-08T20:14:16.953Z,101947.34
2023-05-08T20:16:47.686Z,101946.19
2023-05-08T20:19:19.099Z,101945.11
2023-05-08T20:21:48.064Z,101946.02
2023-05-08T20:24:16.649Z,101943.40
2023-05-08T20:26:44.871Z,101942.52
2023-05-08T20:29:13.361Z,101942.86
2023-05-08T20:31:41.686Z,101937.81
2023-05-08T20:34:10.077Z,101934.42
2023-05-08T20:36:38.805Z,101934.27
2023-05-08T20:39:07.202Z,101937.46
2023-05-08T20:41:35.773Z,101940.54
2023-05-08T20:44:04.257Z,101936.02
2023-05-08T20:46:32.842Z,101937.08
2023-05-08T20:49:04.203Z,101940.63
2023-05-08T20:51:32.993Z,101941.79
2023-05-08T20:54:02.276Z,101938.59
2023-05-08T20:56:30.880Z,101937.30
2023-05-08T20:58:59.146Z,101938.02
2023-05-08T21:01:27.728Z,101945.14
2023-05-08T21:03:56.311Z,101948.01
2023-05-08T21:06:24.787Z,101946.27
2023-05-08T21:08:53.398Z,101948.33
2023-05-08T21:11:21.755Z,101951.93
2023-05-08T21:13:50.133Z,101954.54
2023-05-08T21:16:18.538Z,101954.02
2023-05-08T21:18:47.004Z,101955.85
2023-05-08T21:21:20.186Z,101959.59
2023-05-08T21:23:48.679Z,101959.40
2023-05-08T21:26:18.387Z,101965.13
2023-05-08T21:28:46.777Z,101962.51
2023-05-08T21:31:15.158Z,101963.05
2023-05-08T21:33:43.733Z,101963.30
2023-05-08T21:36:12.123Z,101966.21
2023-05-08T21:38:42.127Z,101971.09
2023-05-08T21:41:10.531Z,101973.05
2023-05-08T21:43:39.187Z,101975.41
2023-05-08T21:46:09.514Z,101973.11
2023-05-08T21:48:37.900Z,101984.10
2023-05-08T21:51:06.897Z,101981.45
2023-05-08T21:53:35.265Z,101978.43
2023-05-08T21:56:04.059Z,101980.71
2023-05-08T21:58:32.435Z,101977.16
2023-05-08T22:01:00.916Z,101976.79
2023-05-08T22:03:29.778Z,101976.04
2023-05-08T22:05:58.494Z,101973.90
2023-05-08T22:08:27.199Z,101968.80
2023-05-08T22:10:55.570Z,101959.20
2023-05-08T22:13:24.163Z,101958.64
2023-05-08T22:15:52.759Z,101957.75
2023-05-08T22:18:21.309Z,101953.13
2023-05-08T22:20:49.802Z,101956.50
2023-05-08T22:23:18.172Z,101955.30
2023-05-08T22:25:46.860Z,101953.27
2023-05-08T22:28:15.138Z,101951.03
2023-05-08T22:30:43.616Z,101953.95
2023-05-08T22:33:11.998Z,101952.13
2023-05-08T22:35:40.589Z,101948.65
2023-05-08T22:38:09.061Z,101949.31
2023-05-08T22:40:37.543Z,101949.79
2023-05-08T22:43:06.026Z,101950.48
2023-05-08T22:45:35.044Z,101951.28
2023-05-08T22:48:04.302Z,101947.80
2023-05-08T22:50:32.904Z,101944.32
2023-05-08T22:53:03.778Z,101945.98
2023-05-08T22:55:32.325Z,101945.94
2023-05-08T22:58:01.022Z,101946.98
2023-05-08T23:00:29.324Z,101950.54
2023-05-08T23:02:57.810Z,101947.86
2023-05-08T23:05:26.267Z,101950.28
2023-05-08T23:07:55.379Z,101943.69
2023-05-08T23:10:23.623Z,101942.38
2023-05-08T23:12:52.031Z,101941.86
2023-05-08T23:15:21.412Z,101939.79
2023-05-08T23:17:50.035Z,101938.58
2023-05-08T23:20:18.392Z,101936.02
2023-05-08T23:22:46.855Z,101933.00
2023-05-08T23:25:15.915Z,101934.86
2023-05-08T23:27:44.530Z,101931.99
2023-05-08T23:30:13.560Z,101930.84
2023-05-08T23:32:42.045Z,101933.34
2023-05-08T23:35:11.309Z,101936.08
2023-05-08T23:37:39.698Z,101934.73
2023-05-08T23:40:08.954Z,101934.80
2023-05-08T23:42:37.482Z,101937.75
2023-05-08T23:45:07.982Z,101938.13
2023-05-08T23:47:36.609Z,101935.47
2023-05-08T23:50:05.933Z,101935.14
2023-05-08T23:52:34.061Z,101931.96
2023-05-08T23:55:02.565Z,101933.02
2023-05-08T23:57:30.929Z,101929.77
2023-05-08T23:59:59.411Z,101930.15
